Terminal Aerodrome Forecast
Issued by NWS Atlanta, GA

Home | Current Version | Previous Version | Text Only | Print | Product List | Glossary On
Versions: 1 2 3 4 5 6 7 8 9 10 11 12 13 14 15 16 17 18 19 20 21 22 23 24 25 26 27 28 29 30 31 32 33 34 35 36 37
000
FTUS42 KFFC 250138 AAA
TAFATL
TAF AMD
KATL 250138Z 2502/2606 29005KT P6SM BKN045
     FM251100 31005KT P6SM SCT030 BKN250
     FM251500 32006KT 6SM -RA OVC040
     FM251800 33006KT 5SM -RA OVC025
     FM252100 04007KT 3SM -RASN OVC008
     FM252300 06006KT 1SM -SN OVC005
      TEMPO 2523/2603 1/2SM SN OVC003
     FM260300 04008KT 2SM -SN OVC007=

USA.gov is the U.S. government's official web portal to all federal, state and local government web resources and services.